createdAt,value
2023-04-20T00:00:59.972Z,94875.22
2023-04-20T00:03:27.676Z,94872.41
2023-04-20T00:05:54.822Z,94867.56
2023-04-20T00:08:21.544Z,94858.19
2023-04-20T00:10:48.348Z,94852.00
2023-04-20T00:13:14.968Z,94850.28
2023-04-20T00:15:41.722Z,94835.94
2023-04-20T00:18:08.625Z,94839.25
2023-04-20T00:20:35.752Z,94846.19
2023-04-20T00:23:03.010Z,94850.72
2023-04-20T00:25:30.730Z,94843.78
2023-04-20T00:27:58.215Z,94836.00
2023-04-20T00:30:25.228Z,94829.06
2023-04-20T00:32:52.033Z,94820.47
2023-04-20T00:35:18.684Z,94821.25
2023-04-20T00:37:45.380Z,94815.47
2023-04-20T00:40:12.340Z,94807.59
2023-04-20T00:42:40.683Z,94793.44
2023-04-20T00:45:08.043Z,94779.53
2023-04-20T00:47:34.803Z,94773.50
2023-04-20T00:50:02.643Z,94767.22
2023-04-20T00:52:31.194Z,94772.34
2023-04-20T00:54:58.617Z,94775.47
2023-04-20T00:57:28.048Z,94782.66
2023-04-20T00:59:54.579Z,94775.13
2023-04-20T01:02:22.690Z,94776.97
2023-04-20T01:04:49.694Z,94772.47
2023-04-20T01:07:16.444Z,94770.81
2023-04-20T01:09:43.358Z,94773.38
2023-04-20T01:12:11.635Z,94770.63
2023-04-20T01:14:38.572Z,94775.03
2023-04-20T01:17:06.092Z,94778.63
2023-04-20T01:19:33.600Z,94781.53
2023-04-20T01:22:02.061Z,94770.88
2023-04-20T01:24:29.027Z,94758.13
2023-04-20T01:26:56.478Z,94761.72
2023-04-20T01:29:23.102Z,94761.56
2023-04-20T01:31:49.882Z,94749.41
2023-04-20T01:34:19.653Z,94755.19
2023-04-20T01:36:46.457Z,94749.84
2023-04-20T01:39:13.181Z,94749.97
2023-04-20T01:41:40.571Z,94753.22
2023-04-20T01:44:07.102Z,94744.75
2023-04-20T01:46:37.816Z,94737.91
2023-04-20T01:49:08.093Z,94739.75
2023-04-20T01:51:35.331Z,94733.84
2023-04-20T01:54:03.019Z,94731.78
2023-04-20T01:56:29.617Z,94730.84
2023-04-20T01:58:58.275Z,94720.88
2023-04-20T02:01:26.450Z,94720.97
2023-04-20T02:03:53.465Z,94717.53
2023-04-20T02:06:21.272Z,94724.22
2023-04-20T02:08:48.019Z,94721.81
2023-04-20T02:11:15.167Z,94722.50
2023-04-20T02:13:41.715Z,94718.22
2023-04-20T02:16:08.356Z,94713.94
2023-04-20T02:18:35.125Z,94714.16
2023-04-20T02:21:01.804Z,94711.84
2023-04-20T02:23:28.450Z,94710.13
2023-04-20T02:25:55.555Z,94708.59
2023-04-20T02:28:22.159Z,94703.13
2023-04-20T02:30:49.155Z,94714.28
2023-04-20T02:33:15.870Z,94711.84
2023-04-20T02:35:42.445Z,94707.19
2023-04-20T02:38:11.007Z,94706.16
2023-04-20T02:40:38.831Z,94700.81
2023-04-20T02:43:05.937Z,94695.59
2023-04-20T02:45:33.554Z,94692.94
2023-04-20T02:48:00.636Z,94684.81
2023-04-20T02:50:30.548Z,94684.00
2023-04-20T02:53:23.440Z,94688.06
2023-04-20T02:56:09.601Z,94685.06
2023-04-20T02:58:42.755Z,94684.94
2023-04-20T03:01:16.651Z,94681.13
2023-04-20T03:03:45.333Z,94671.38
2023-04-20T03:06:12.553Z,94670.66
2023-04-20T03:08:42.012Z,94673.09
2023-04-20T03:11:28.942Z,94662.31
2023-04-20T03:13:56.472Z,94672.16
2023-04-20T03:16:23.032Z,94672.16
2023-04-20T03:18:52.330Z,94668.44
2023-04-20T03:21:18.922Z,94668.69
2023-04-20T03:23:45.908Z,94671.00
2023-04-20T03:26:13.570Z,94671.00
2023-04-20T03:29:02.936Z,94670.41
2023-04-20T03:31:29.872Z,94668.91
2023-04-20T03:33:57.759Z,94667.88
2023-04-20T03:36:24.609Z,94665.00
2023-04-20T03:38:51.324Z,94661.03
2023-04-20T03:41:18.073Z,94659.63
2023-04-20T03:43:44.698Z,94647.84
2023-04-20T03:46:11.262Z,94649.69
2023-04-20T03:48:38.586Z,94644.13
2023-04-20T03:51:05.568Z,94643.31
2023-04-20T03:53:32.160Z,94652.69
2023-04-20T03:55:59.941Z,94650.38
2023-04-20T03:58:27.025Z,94644.78
2023-04-20T04:01:07.730Z,94637.16
2023-04-20T04:03:37.029Z,94645.84
2023-04-20T04:06:04.677Z,94640.63
2023-04-20T04:08:32.833Z,94643.53
2023-04-20T04:11:00.689Z,94642.16
2023-04-20T04:13:27.779Z,94639.94
2023-04-20T04:15:54.562Z,94632.69
2023-04-20T04:18:22.542Z,94626.75
2023-04-20T04:20:50.172Z,94627.66
2023-04-20T04:23:17.130Z,94621.41
2023-04-20T04:25:50.035Z,94630.13
2023-04-20T04:28:21.712Z,94641.09
2023-04-20T04:31:02.032Z,94639.63
2023-04-20T04:33:29.570Z,94634.97
2023-04-20T04:35:57.479Z,94623.63
2023-04-20T04:38:24.392Z,94622.69
2023-04-20T04:40:52.517Z,94627.66
2023-04-20T04:43:20.255Z,94626.75
2023-04-20T04:45:58.585Z,94634.72
2023-04-20T04:48:26.095Z,94628.00
2023-04-20T04:50:52.631Z,94624.91
2023-04-20T04:53:19.450Z,94625.69
2023-04-20T04:55:46.481Z,94622.44
2023-04-20T04:58:13.301Z,94625.69
2023-04-20T05:00:40.345Z,94632.09
2023-04-20T05:03:07.045Z,94630.59
2023-04-20T05:05:33.786Z,94615.97
2023-04-20T05:08:00.486Z,94614.13
2023-04-20T05:10:27.411Z,94609.94
2023-04-20T05:12:54.084Z,94617.25
2023-04-20T05:15:20.728Z,94619.56
2023-04-20T05:17:49.616Z,94622.59
2023-04-20T05:20:16.823Z,94621.09
2023-04-20T05:22:43.723Z,94616.69
2023-04-20T05:25:13.259Z,94627.81
2023-04-20T05:27:40.789Z,94627.81
2023-04-20T05:30:19.447Z,94623.53
2023-04-20T05:32:51.173Z,94625.03
2023-04-20T05:35:19.187Z,94623.88
2023-04-20T05:37:47.302Z,94622.94
2023-04-20T05:40:15.293Z,94613.66
2023-04-20T05:42:41.914Z,94606.81
2023-04-20T05:45:09.379Z,94606.25
2023-04-20T05:47:36.205Z,94606.25
2023-04-20T05:50:02.932Z,94611.00
2023-04-20T05:52:29.570Z,94610.31
2023-04-20T05:54:58.420Z,94611.22
2023-04-20T05:57:25.135Z,94601.50
2023-04-20T05:59:51.950Z,94596.97
2023-04-20T06:02:18.581Z,94592.81
2023-04-20T06:04:45.706Z,94588.03
2023-04-20T06:07:12.651Z,94591.41
2023-04-20T06:09:39.397Z,94588.81
2023-04-20T06:12:06.262Z,94583.38
2023-04-20T06:14:32.966Z,94588.94
2023-04-20T06:16:59.509Z,94586.94
2023-04-20T06:19:26.327Z,94590.44
2023-04-20T06:21:52.908Z,94588.13
2023-04-20T06:24:19.636Z,94579.69
2023-04-20T06:26:46.232Z,94588.97
2023-04-20T06:29:12.856Z,94591.28
2023-04-20T06:31:39.984Z,94586.28
2023-04-20T06:34:06.790Z,94589.06
2023-04-20T06:36:33.535Z,94593.34
2023-04-20T06:39:00.277Z,94597.66
2023-04-20T06:41:27.101Z,94596.69
2023-04-20T06:43:53.887Z,94592.19
2023-04-20T06:46:20.460Z,94587.22
2023-04-20T06:48:47.261Z,94580.50
2023-04-20T06:51:14.220Z,94580.47
2023-04-20T06:53:41.034Z,94579.31
2023-04-20T06:56:08.010Z,94585.38
2023-04-20T06:58:34.667Z,94596.25
2023-04-20T07:01:02.185Z,94614.47
2023-04-20T07:03:28.969Z,94621.00
2023-04-20T07:05:55.887Z,94621.56
2023-04-20T07:08:22.679Z,94612.50
2023-04-20T07:10:49.308Z,94612.06
2023-04-20T07:13:16.147Z,94610.44
2023-04-20T07:15:45.206Z,94610.44
2023-04-20T07:18:12.141Z,94605.56
2023-04-20T07:20:39.255Z,94609.50
2023-04-20T07:23:05.802Z,94610.88
2023-04-20T07:25:32.921Z,94608.56
2023-04-20T07:27:59.772Z,94610.19
2023-04-20T07:30:27.027Z,94603.44
2023-04-20T07:32:53.899Z,94597.19
2023-04-20T07:35:20.740Z,94598.69
2023-04-20T07:37:47.489Z,94594.97
2023-04-20T07:40:14.209Z,94606.34
2023-04-20T07:42:41.260Z,94600.53
2023-04-20T07:45:08.552Z,94598.09
2023-04-20T07:47:35.932Z,94590.09
2023-04-20T07:50:06.623Z,94592.75
2023-04-20T07:52:33.578Z,94593.22
2023-04-20T07:55:00.325Z,94602.13
2023-04-20T07:57:28.417Z,94613.84
2023-04-20T07:59:55.099Z,94610.69
2023-04-20T08:02:22.129Z,94607.97
2023-04-20T08:04:49.855Z,94613.97
2023-04-20T08:07:17.726Z,94615.53
2023-04-20T08:09:44.347Z,94625.31
2023-04-20T08:12:11.274Z,94619.00
2023-04-20T08:14:38.290Z,94616.78
2023-04-20T08:17:05.194Z,94614.06
2023-04-20T08:19:31.820Z,94604.72
2023-04-20T08:21:59.798Z,94607.97
2023-04-20T08:24:28.189Z,94617.06
2023-04-20T08:26:54.974Z,94608.50
2023-04-20T08:29:21.765Z,94614.31
2023-04-20T08:31:50.694Z,94615.34
2023-04-20T08:34:18.972Z,94616.03
2023-04-20T08:36:46.363Z,94614.72
2023-04-20T08:39:15.523Z,94610.50
2023-04-20T08:41:42.186Z,94609.81
2023-04-20T08:44:08.894Z,94602.69
2023-04-20T08:46:35.962Z,94596.19
2023-04-20T08:49:04.009Z,94591.72
2023-04-20T08:51:33.867Z,94568.38
2023-04-20T08:54:07.818Z,94567.22
2023-04-20T08:56:38.937Z,94566.06
2023-04-20T08:59:09.439Z,94573.09
2023-04-20T09:01:37.640Z,94574.97
2023-04-20T09:04:27.141Z,94580.34
2023-04-20T09:06:56.118Z,94581.97
2023-04-20T09:09:24.661Z,94593.28
2023-04-20T09:12:02.568Z,94594.84
2023-04-20T09:14:29.863Z,94590.47
2023-04-20T09:17:02.043Z,94575.56
2023-04-20T09:19:30.203Z,94577.88
2023-04-20T09:21:58.665Z,94588.22
2023-04-20T09:24:37.551Z,94581.13
2023-04-20T09:27:19.016Z,94590.03
2023-04-20T09:29:57.961Z,94572.66
2023-04-20T09:32:25.712Z,94558.25
2023-04-20T09:34:52.329Z,94553.63
2023-04-20T09:37:19.215Z,94556.31
2023-04-20T09:39:46.974Z,94555.88
2023-04-20T09:42:15.646Z,94561.81
2023-04-20T09:44:45.983Z,94555.31
2023-04-20T09:47:17.219Z,94548.06
2023-04-20T09:49:47.611Z,94545.94
2023-04-20T09:52:18.744Z,94544.72
2023-04-20T09:54:45.955Z,94563.91
2023-04-20T09:57:13.757Z,94565.66
2023-04-20T09:59:44.418Z,94552.69
2023-04-20T10:02:12.623Z,94551.31
2023-04-20T10:04:52.808Z,94542.88
2023-04-20T10:07:31.671Z,94543.63
2023-04-20T10:10:12.792Z,94546.25
2023-04-20T10:12:49.416Z,94547.44
2023-04-20T10:15:16.862Z,94546.66
2023-04-20T10:17:47.194Z,94537.59
2023-04-20T10:20:26.238Z,94556.81
2023-04-20T10:22:54.145Z,94564.44
2023-04-20T10:25:24.493Z,94581.69
2023-04-20T10:28:04.501Z,94577.38
2023-04-20T10:30:32.787Z,94581.13
2023-04-20T10:33:18.166Z,94576.75
2023-04-20T10:35:54.703Z,94586.34
2023-04-20T10:38:36.153Z,94577.22
2023-04-20T10:41:10.402Z,94573.09
2023-04-20T10:43:43.368Z,94557.75
2023-04-20T10:46:22.162Z,94555.59
2023-04-20T10:49:02.937Z,94552.81
2023-04-20T10:51:29.949Z,94537.28
2023-04-20T10:54:07.934Z,94529.53
2023-04-20T10:56:42.524Z,94517.75
2023-04-20T10:59:11.640Z,94521.69
2023-04-20T11:01:38.880Z,94526.59
2023-04-20T11:04:07.290Z,94524.84
2023-04-20T11:06:35.051Z,94533.59
2023-04-20T11:09:01.947Z,94519.19
2023-04-20T11:11:28.742Z,94516.50
2023-04-20T11:14:09.406Z,94519.97
2023-04-20T11:16:49.696Z,94519.06
2023-04-20T11:19:26.504Z,94520.75
2023-04-20T11:21:53.351Z,94514.47
2023-04-20T11:24:21.719Z,94515.00
2023-04-20T11:26:54.052Z,94500.78
2023-04-20T11:29:38.862Z,94493.38
2023-04-20T11:32:07.787Z,94483.22
2023-04-20T11:34:35.974Z,94500.44
2023-04-20T11:37:11.631Z,94493.13
2023-04-20T11:39:38.622Z,94504.47
2023-04-20T11:42:06.340Z,94503.53
2023-04-20T11:44:33.968Z,94515.78
2023-04-20T11:47:01.914Z,94515.78
2023-04-20T11:49:29.113Z,94512.66
2023-04-20T11:51:55.675Z,94514.69
2023-04-20T11:54:24.174Z,94519.00
2023-04-20T11:56:51.503Z,94517.09
2023-04-20T11:59:20.064Z,94516.56
2023-04-20T12:01:48.017Z,94510.69
2023-04-20T12:04:15.801Z,94506.06
2023-04-20T12:06:42.988Z,94502.63
2023-04-20T12:09:09.682Z,94502.88
2023-04-20T12:11:36.391Z,94496.41
2023-04-20T12:14:04.581Z,94499.53
2023-04-20T12:16:31.735Z,94493.72
2023-04-20T12:18:58.492Z,94487.00
2023-04-20T12:21:25.103Z,94482.81
2023-04-20T12:23:51.640Z,94486.31
2023-04-20T12:26:18.416Z,94481.06
2023-04-20T12:28:48.107Z,94487.00
2023-04-20T12:31:14.824Z,94483.47
2023-04-20T12:33:41.365Z,94479.84
2023-04-20T12:36:08.390Z,94482.56
2023-04-20T12:38:34.960Z,94475.00
2023-04-20T12:41:02.005Z,94477.28
2023-04-20T12:43:29.354Z,94485.38
2023-04-20T12:45:56.016Z,94488.34
2023-04-20T12:48:22.848Z,94477.44
2023-04-20T12:50:50.763Z,94476.75
2023-04-20T12:53:17.691Z,94478.28
2023-04-20T12:55:44.445Z,94477.16
2023-04-20T12:58:11.241Z,94476.09
2023-04-20T13:00:37.995Z,94466.38
2023-04-20T13:03:04.810Z,94461.25
2023-04-20T13:05:31.792Z,94458.28
2023-04-20T13:07:58.360Z,94467.59
2023-04-20T13:10:25.224Z,94472.84
2023-04-20T13:12:52.530Z,94473.00
2023-04-20T13:15:32.007Z,94482.56
2023-04-20T13:18:05.522Z,94487.69
2023-04-20T13:20:32.675Z,94482.03
2023-04-20T13:23:01.115Z,94476.91
2023-04-20T13:25:30.011Z,94477.00
2023-04-20T13:27:56.998Z,94473.38
2023-04-20T13:30:24.598Z,94484.06
2023-04-20T13:32:51.974Z,94479.19
2023-04-20T13:35:19.230Z,94484.06
2023-04-20T13:37:46.178Z,94483.09
2023-04-20T13:40:12.997Z,94463.94
2023-04-20T13:42:39.618Z,94458.31
2023-04-20T13:45:06.948Z,94443.34
2023-04-20T13:47:33.646Z,94443.16
2023-04-20T13:50:00.264Z,94451.81
2023-04-20T13:52:26.943Z,94452.75
2023-04-20T13:54:53.534Z,94463.81
2023-04-20T13:57:20.276Z,94460.06
2023-04-20T13:59:46.773Z,94456.66
2023-04-20T14:02:13.665Z,94457.34
2023-04-20T14:04:40.298Z,94457.34
2023-04-20T14:07:07.082Z,94459.50
2023-04-20T14:09:33.741Z,94466.00
2023-04-20T14:12:04.473Z,94466.50
2023-04-20T14:14:31.705Z,94467.03
2023-04-20T14:16:58.261Z,94463.94
2023-04-20T14:19:24.810Z,94456.44
2023-04-20T14:21:51.738Z,94456.13
2023-04-20T14:24:18.470Z,94447.09
2023-04-20T14:26:45.392Z,94441.41
2023-04-20T14:29:12.254Z,94440.84
2023-04-20T14:31:38.918Z,94441.78
2023-04-20T14:34:05.542Z,94442.59
2023-04-20T14:36:33.341Z,94446.22
2023-04-20T14:38:59.989Z,94445.28
2023-04-20T14:41:26.663Z,94448.38
2023-04-20T14:43:53.457Z,94457.16
2023-04-20T14:46:20.288Z,94457.72
2023-04-20T14:48:47.192Z,94467.84
2023-04-20T14:51:14.046Z,94456.78
2023-04-20T14:53:40.597Z,94449.88
2023-04-20T14:56:07.463Z,94448.00
2023-04-20T14:58:34.525Z,94441.31
2023-04-20T15:01:01.569Z,94436.59
2023-04-20T15:03:28.278Z,94440.09
2023-04-20T15:06:01.509Z,94452.59
2023-04-20T15:08:28.413Z,94452.13
2023-04-20T15:10:57.820Z,94451.72
2023-04-20T15:13:25.064Z,94456.19
2023-04-20T15:15:54.736Z,94454.72
2023-04-20T15:18:21.702Z,94454.84
2023-04-20T15:20:50.318Z,94455.06
2023-04-20T15:23:17.137Z,94467.53
2023-04-20T15:25:43.838Z,94467.75
2023-04-20T15:28:11.253Z,94467.31
2023-04-20T15:30:37.857Z,94468.25
2023-04-20T15:33:05.548Z,94463.84
2023-04-20T15:35:33.445Z,94454.59
2023-04-20T15:38:00.833Z,94458.09
2023-04-20T15:40:27.715Z,94456.78
2023-04-20T15:42:58.884Z,94453.13
2023-04-20T15:45:25.516Z,94458.44
2023-04-20T15:47:52.215Z,94459.16
2023-04-20T15:50:19.070Z,94460.13
2023-04-20T15:52:49.703Z,94461.19
2023-04-20T15:55:16.824Z,94456.72
2023-04-20T15:57:44.699Z,94458.91
2023-04-20T16:00:12.456Z,94457.56
2023-04-20T16:02:40.418Z,94455.94
2023-04-20T16:05:07.785Z,94460.78
2023-04-20T16:07:34.483Z,94457.91
2023-04-20T16:10:02.162Z,94452.66
2023-04-20T16:12:29.087Z,94450.94
2023-04-20T16:14:57.122Z,94451.22
2023-04-20T16:17:24.006Z,94459.44
2023-04-20T16:19:50.957Z,94466.69
2023-04-20T16:22:18.007Z,94449.72
2023-04-20T16:24:44.987Z,94460.75
2023-04-20T16:27:11.708Z,94460.22
2023-04-20T16:29:38.583Z,94471.28
2023-04-20T16:32:05.907Z,94467.94
2023-04-20T16:34:32.556Z,94471.47
2023-04-20T16:36:59.722Z,94468.09
2023-04-20T16:39:26.626Z,94463.50
2023-04-20T16:41:53.277Z,94474.69
2023-04-20T16:44:20.354Z,94471.06
2023-04-20T16:46:51.320Z,94466.97
2023-04-20T16:49:18.198Z,94475.06
2023-04-20T16:51:44.938Z,94471.72
2023-04-20T16:54:12.853Z,94470.47
2023-04-20T16:56:40.109Z,94476.16
2023-04-20T16:59:06.833Z,94470.72
2023-04-20T17:01:33.740Z,94475.91
2023-04-20T17:04:00.907Z,94483.19
2023-04-20T17:06:27.970Z,94487.09
2023-04-20T17:08:57.422Z,94483.19
2023-04-20T17:11:24.317Z,94478.63
2023-04-20T17:13:51.036Z,94481.19
2023-04-20T17:16:17.610Z,94483.06
2023-04-20T17:18:44.560Z,94485.63
2023-04-20T17:21:11.110Z,94481.44
2023-04-20T17:23:37.622Z,94479.72
2023-04-20T17:26:04.400Z,94487.41
2023-04-20T17:28:31.330Z,94483.63
2023-04-20T17:30:58.212Z,94494.56
2023-04-20T17:33:24.883Z,94500.75
2023-04-20T17:35:51.542Z,94505.88
2023-04-20T17:38:18.197Z,94513.84
2023-04-20T17:40:44.812Z,94513.84
2023-04-20T17:43:11.478Z,94513.84
2023-04-20T17:45:38.167Z,94521.13
2023-04-20T17:48:05.519Z,94518.56
2023-04-20T17:50:32.968Z,94529.50
2023-04-20T17:53:03.844Z,94530.44
2023-04-20T17:55:30.456Z,94538.94
2023-04-20T17:57:56.979Z,94551.97
2023-04-20T18:00:23.958Z,94552.34
2023-04-20T18:02:51.020Z,94549.31
2023-04-20T18:05:18.170Z,94538.25
2023-04-20T18:07:45.025Z,94541.50
2023-04-20T18:10:13.521Z,94550.50
2023-04-20T18:12:40.512Z,94550.75
2023-04-20T18:15:08.449Z,94558.56
2023-04-20T18:17:35.433Z,94561.94
2023-04-20T18:20:02.019Z,94562.66
2023-04-20T18:22:28.576Z,94571.56
2023-04-20T18:24:55.343Z,94571.28
2023-04-20T18:27:21.910Z,94574.38
2023-04-20T18:29:49.495Z,94567.50
2023-04-20T18:32:17.968Z,94572.59
2023-04-20T18:34:44.690Z,94570.16
2023-04-20T18:37:12.517Z,94575.28
2023-04-20T18:39:40.140Z,94576.25
2023-04-20T18:42:06.691Z,94590.34
2023-04-20T18:44:33.537Z,94584.97
2023-04-20T18:47:00.179Z,94586.22
2023-04-20T18:49:26.909Z,94587.63
2023-04-20T18:51:53.698Z,94587.97
2023-04-20T18:54:20.306Z,94590.56
2023-04-20T18:56:47.108Z,94592.19
2023-04-20T18:59:13.949Z,94594.44
2023-04-20T19:01:41.522Z,94609.53
2023-04-20T19:04:09.053Z,94600.34
2023-04-20T19:06:35.887Z,94606.41
2023-04-20T19:09:02.636Z,94601.84
2023-04-20T19:11:31.324Z,94604.09
2023-04-20T19:13:58.076Z,94614.75
2023-04-20T19:16:24.676Z,94614.50
2023-04-20T19:18:51.474Z,94624.50
2023-04-20T19:21:18.831Z,94619.91
2023-04-20T19:23:47.520Z,94625.00
2023-04-20T19:26:14.219Z,94631.31
2023-04-20T19:28:40.758Z,94633.72
2023-04-20T19:31:09.464Z,94638.88
2023-04-20T19:33:36.237Z,94636.09
2023-04-20T19:36:06.151Z,94637.28
2023-04-20T19:38:34.746Z,94642.16
2023-04-20T19:41:01.820Z,94645.19
2023-04-20T19:43:28.380Z,94657.09
2023-04-20T19:45:59.158Z,94656.34
2023-04-20T19:48:25.955Z,94653.59
2023-04-20T19:50:53.365Z,94651.03
2023-04-20T19:53:19.916Z,94648.47
2023-04-20T19:55:46.567Z,94646.69
2023-04-20T19:58:13.423Z,94634.25
2023-04-20T20:00:40.239Z,94638.31
2023-04-20T20:03:10.492Z,94636.78
2023-04-20T20:05:37.348Z,94640.81
2023-04-20T20:08:04.369Z,94631.25
2023-04-20T20:10:31.478Z,94628.69
2023-04-20T20:12:58.150Z,94625.19
2023-04-20T20:15:24.848Z,94628.44
2023-04-20T20:17:55.224Z,94636.75
2023-04-20T20:20:30.209Z,94650.06
2023-04-20T20:22:56.992Z,94652.16
2023-04-20T20:25:23.906Z,94648.75
2023-04-20T20:27:51.089Z,94651.44
2023-04-20T20:30:18.344Z,94660.72
2023-04-20T20:32:45.061Z,94661.88
2023-04-20T20:35:12.986Z,94662.25
2023-04-20T20:37:40.618Z,94659.78
2023-04-20T20:40:14.453Z,94663.69
2023-04-20T20:42:45.110Z,94660.69
2023-04-20T20:45:13.098Z,94663.25
2023-04-20T20:47:41.313Z,94665.91
2023-04-20T20:50:09.315Z,94664.19
2023-04-20T20:52:36.046Z,94661.75
2023-04-20T20:55:03.973Z,94655.44
2023-04-20T20:57:31.016Z,94653.72
2023-04-20T20:59:57.524Z,94659.94
2023-04-20T21:02:24.431Z,94661.41
2023-04-20T21:04:51.419Z,94663.16
2023-04-20T21:07:18.206Z,94663.81
2023-04-20T21:09:46.228Z,94657.72
2023-04-20T21:12:12.817Z,94660.84
2023-04-20T21:14:39.655Z,94658.78
2023-04-20T21:17:06.275Z,94660.38
2023-04-20T21:19:33.245Z,94659.06
2023-04-20T21:21:59.943Z,94651.81
2023-04-20T21:24:26.920Z,94649.81
2023-04-20T21:26:53.604Z,94655.34
2023-04-20T21:29:20.617Z,94652.13
2023-04-20T21:31:47.615Z,94655.03
2023-04-20T21:34:14.517Z,94649.81
2023-04-20T21:36:41.196Z,94639.44
2023-04-20T21:39:07.882Z,94635.94
2023-04-20T21:41:34.835Z,94642.69
2023-04-20T21:44:02.543Z,94645.94
2023-04-20T21:46:29.590Z,94664.59
2023-04-20T21:48:56.268Z,94670.13
2023-04-20T21:51:23.006Z,94671.03
2023-04-20T21:53:49.600Z,94661.47
2023-04-20T21:56:18.227Z,94658.00
2023-04-20T21:58:45.192Z,94648.69
2023-04-20T22:01:11.787Z,94644.81
2023-04-20T22:03:38.617Z,94648.72
2023-04-20T22:06:06.445Z,94647.53
2023-04-20T22:08:33.159Z,94648.88
2023-04-20T22:10:59.926Z,94655.31
2023-04-20T22:13:26.791Z,94649.66
2023-04-20T22:15:53.468Z,94663.50
2023-04-20T22:18:20.185Z,94650.00
2023-04-20T22:20:46.961Z,94647.91
2023-04-20T22:23:13.503Z,94641.69
2023-04-20T22:25:40.967Z,94640.88
2023-04-20T22:28:07.555Z,94634.28
2023-04-20T22:30:35.708Z,94636.72
2023-04-20T22:33:03.886Z,94635.22
2023-04-20T22:35:30.719Z,94642.66
2023-04-20T22:37:57.442Z,94640.78
2023-04-20T22:40:24.298Z,94639.59
2023-04-20T22:42:51.033Z,94635.25
2023-04-20T22:45:19.745Z,94638.75
2023-04-20T22:47:47.237Z,94642.25
2023-04-20T22:50:13.986Z,94646.00
2023-04-20T22:52:40.683Z,94647.78
2023-04-20T22:55:08.962Z,94643.72
2023-04-20T22:57:35.789Z,94644.03
2023-04-20T23:00:06.345Z,94647.00
2023-04-20T23:02:33.169Z,94649.13
2023-04-20T23:04:59.955Z,94643.34
2023-04-20T23:07:27.538Z,94650.19
2023-04-20T23:09:56.370Z,94645.06
2023-04-20T23:12:23.559Z,94648.81
2023-04-20T23:14:50.833Z,94654.22
2023-04-20T23:17:17.786Z,94650.97
2023-04-20T23:19:44.628Z,94656.09
2023-04-20T23:22:11.536Z,94657.56
2023-04-20T23:24:38.474Z,94651.53
2023-04-20T23:27:05.494Z,94649.66
2023-04-20T23:29:33.028Z,94653.63
2023-04-20T23:32:00.794Z,94648.09
2023-04-20T23:34:27.416Z,94646.72
2023-04-20T23:36:54.505Z,94643.47
2023-04-20T23:39:21.702Z,94631.38
2023-04-20T23:41:48.623Z,94638.13
2023-04-20T23:44:15.380Z,94638.91
2023-04-20T23:46:42.156Z,94633.69
2023-04-20T23:49:08.971Z,94622.78
2023-04-20T23:51:35.533Z,94617.78
2023-04-20T23:54:02.234Z,94621.16
2023-04-20T23:56:29.278Z,94612.53
2023-04-20T23:58:56.029Z,94618.72
